Time;durP1;ratioP1;P1;durP2;ratioP2;P2;SDS_P1;SDS_P2;PMS_P1;PMS_P2;Temp;Humidity;BMP_temperature;BMP_pressure;BME280_temperature;BME280_humidity;BME280_pressure;Samples;Min_cycle;Max_cycle;Signal;HPM_P1;HPM_P2
2023/10/04 00:00:21;;;;;;;10.55;4.75;;;18.00;99.90;;;18.36;69.61;102318.38;5051829;28;20041;-78
2023/10/04 00:02:53;;;;;;;14.27;5.38;;;18.00;99.90;;;18.25;69.87;102309.63;5053056;28;20045;-78
2023/10/04 00:05:24;;;;;;;15.15;5.03;;;18.00;99.90;;;18.36;70.05;102318.38;5054209;28;20570;-78
2023/10/04 00:07:56;;;;;;;14.45;6.20;;;18.00;99.90;;;18.15;70.59;102308.84;5055232;28;20394;-77
2023/10/04 00:10:25;;;;;;;14.30;5.47;;;18.00;99.90;;;18.18;70.98;102319.50;5055070;28;20045;-78
2023/10/04 00:12:54;;;;;;;16.73;5.35;;;17.90;99.90;;;17.54;70.22;102216.75;5055103;28;20041;-78
2023/10/04 00:15:26;;;;;;;9.30;4.63;;;17.80;99.90;;;18.16;69.77;102324.00;5055340;28;20049;-78
2023/10/04 00:17:55;;;;;;;13.20;5.45;;;17.80;99.90;;;17.88;70.07;102323.47;5055129;28;20044;-77
2023/10/04 00:20:31;;;;;;;16.83;5.55;;;17.70;99.90;;;18.00;70.62;102331.31;5055705;28;20124;-77
2023/10/04 00:23:01;;;;;;;11.15;5.18;;;17.70;99.90;;;18.05;70.35;102328.59;5055039;28;20128;-78
2023/10/04 00:25:29;;;;;;;14.32;5.25;;;17.70;99.90;;;18.05;70.31;102331.28;5055241;28;20402;-78
2023/10/04 00:27:58;;;;;;;13.15;5.50;;;17.80;99.90;;;17.90;70.33;102326.09;5054874;28;20477;-78
2023/10/04 00:30:30;;;;;;;17.42;5.10;;;17.70;99.90;;;17.42;70.45;102243.63;5054926;28;20128;-77
2023/10/04 00:33:02;;;;;;;10.90;5.53;;;17.60;99.90;;;17.78;70.80;102308.41;5053416;28;20052;-78
2023/10/04 00:35:31;;;;;;;13.60;5.30;;;17.60;99.90;;;17.90;70.92;102339.50;5053378;28;20052;-76
2023/10/04 00:38:00;;;;;;;11.18;5.05;;;17.60;99.90;;;17.92;70.60;102317.13;5053577;28;20079;-78
2023/10/04 00:40:31;;;;;;;16.48;5.03;;;17.70;99.90;;;17.99;70.85;102332.25;5053510;28;20049;-78
2023/10/04 00:43:02;;;;;;;11.70;4.97;;;17.70;99.90;;;17.97;70.60;102314.41;5054795;28;20128;-78
2023/10/04 00:45:33;;;;;;;13.73;5.05;;;17.70;99.90;;;17.75;70.55;102348.56;5054773;28;20080;-75
2023/10/04 00:48:10;;;;;;;11.68;5.18;;;17.50;99.90;;;17.90;70.66;102340.34;5054766;28;20822;-78
2023/10/04 00:50:41;;;;;;;13.60;5.60;;;17.60;99.90;;;17.96;70.50;102344.78;5053961;28;20055;-78
2023/10/04 00:53:14;;;;;;;17.05;4.78;;;17.60;99.90;;;18.05;70.48;102352.72;5054215;28;20049;-78
2023/10/04 00:55:45;;;;;;;14.07;5.07;;;17.70;99.90;;;18.10;70.10;102353.53;5039957;28;20079;-78
2023/10/04 00:58:17;;;;;;;14.18;4.55;;;17.70;99.90;;;18.14;69.78;102352.59;5054871;28;20136;-77
2023/10/04 01:00:48;;;;;;;9.15;4.25;;;17.80;99.90;;;17.98;69.77;102335.81;5055344;28;20482;-78
2023/10/04 01:03:20;;;;;;;10.05;4.35;;;17.80;99.90;;;18.13;69.98;102360.66;5054715;28;20049;-79
2023/10/04 01:05:51;;;;;;;10.80;4.70;;;17.80;99.90;;;18.10;70.27;102358.88;5055080;28;20457;-78
2023/10/04 01:08:23;;;;;;;11.57;5.20;;;17.80;99.90;;;18.18;69.73;102361.47;5053584;28;20151;-78
2023/10/04 01:10:54;;;;;;;10.15;4.90;;;17.90;99.90;;;18.20;69.69;102365.91;5049963;28;20057;-78
2023/10/04 01:13:26;;;;;;;12.60;4.95;;;17.90;99.90;;;18.04;69.94;102361.63;5037923;28;20044;-78
2023/10/04 01:15:57;;;;;;;12.25;5.60;;;17.80;99.90;;;18.08;70.42;102359.84;5053225;28;20049;-78
2023/10/04 01:18:28;;;;;;;14.07;4.80;;;17.80;99.90;;;18.15;70.16;102361.53;5069697;28;20098;-78
2023/10/04 01:20:57;;;;;;;13.90;4.80;;;17.80;99.90;;;18.17;70.34;102374.00;5052843;28;20052;-79
2023/10/04 01:23:28;;;;;;;13.70;5.13;;;17.90;99.90;;;18.03;70.81;102363.44;5054143;28;20049;-78
2023/10/04 01:25:56;;;;;;;13.82;5.32;;;17.80;99.90;;;17.98;71.45;102351.00;5054247;28;20410;-78
2023/10/04 01:28:28;;;;;;;11.90;4.70;;;17.70;99.90;;;17.97;71.15;102360.84;5053908;28;20107;-77
2023/10/04 01:31:00;;;;;;;12.82;5.25;;;17.70;99.90;;;18.15;70.66;102356.16;5053701;28;20076;-78
2023/10/04 01:33:29;;;;;;;12.30;5.05;;;17.80;99.90;;;18.24;70.55;102356.94;5053828;28;20511;-78
2023/10/04 01:35:59;;;;;;;13.30;4.75;;;17.90;99.90;;;18.18;71.05;102359.69;5053245;28;20367;-78
2023/10/04 01:38:31;;;;;;;11.43;4.60;;;17.90;99.90;;;17.59;70.87;102258.66;5052893;28;20036;-78
2023/10/04 01:41:00;;;;;;;11.23;5.28;;;17.90;99.90;;;18.01;71.24;102353.66;5037605;28;20123;-78
2023/10/04 01:43:29;;;;;;;11.40;5.55;;;17.70;99.90;;;18.21;70.63;102357.00;5053882;28;20039;-78
2023/10/04 01:45:59;;;;;;;12.82;4.30;;;17.80;99.90;;;18.23;70.56;102349.81;5053495;28;20110;-77
2023/10/04 01:48:31;;;;;;;15.63;5.18;;;17.90;99.90;;;18.19;70.75;102353.44;5051776;28;20091;-78
2023/10/04 01:51:02;;;;;;;11.00;4.95;;;17.90;99.90;;;18.23;70.34;102338.22;5052484;28;20063;-78
2023/10/04 01:53:34;;;;;;;11.85;5.05;;;17.90;99.90;;;18.37;69.07;102358.56;5068828;28;20045;-78
2023/10/04 01:56:06;;;;;;;13.02;5.45;;;18.00;99.90;;;18.47;68.81;102341.50;5053753;28;20121;-77
2023/10/04 01:58:37;;;;;;;11.20;5.00;;;18.10;99.90;;;18.56;68.36;102340.50;5052280;28;20053;-78
2023/10/04 02:01:08;;;;;;;12.48;5.40;;;18.20;99.90;;;18.49;68.83;102344.16;5051918;28;20463;-78
2023/10/04 02:03:36;;;;;;;12.40;5.05;;;18.10;99.90;;;18.56;68.88;102344.03;5053058;28;20494;-79
2023/10/04 02:06:09;;;;;;;10.82;4.85;;;18.20;99.90;;;18.64;68.97;102352.00;5052089;28;20139;-78
2023/10/04 02:08:39;;;;;;;12.80;4.93;;;18.20;99.90;;;18.54;69.03;102348.53;5037649;28;20041;-79
2023/10/04 02:11:08;;;;;;;14.80;5.07;;;18.30;99.90;;;18.60;69.17;102347.59;5052216;28;20131;-80
2023/10/04 02:13:37;;;;;;;9.55;4.80;;;18.20;99.90;;;18.60;69.23;102351.13;5052730;28;20401;-78
2023/10/04 02:16:06;;;;;;;15.13;4.63;;;18.30;99.90;;;18.54;69.37;102356.56;5051460;28;20556;-77
2023/10/04 02:18:36;;;;;;;10.38;4.90;;;18.20;99.90;;;18.55;69.48;102358.38;5052448;28;20085;-78
2023/10/04 02:21:04;;;;;;;11.10;4.75;;;18.20;99.90;;;18.60;69.32;102363.66;5054658;28;20087;-79
2023/10/04 02:23:33;;;;;;;14.25;5.25;;;18.20;99.90;;;18.59;69.43;102362.78;5053335;28;20366;-78
2023/10/04 02:26:05;;;;;;;10.90;4.43;;;18.20;99.90;;;18.54;69.55;102366.44;5052463;28;20052;-78
2023/10/04 02:28:34;;;;;;;12.18;5.22;;;18.20;99.90;;;18.43;70.14;102362.97;5051820;28;20106;-78
2023/10/04 02:31:03;;;;;;;14.45;5.40;;;18.10;99.90;;;18.36;70.03;102366.63;5052905;28;20222;-78
2023/10/04 02:33:38;;;;;;;12.50;5.47;;;18.00;99.90;;;18.17;70.43;102371.31;5054482;28;20421;-77
2023/10/04 02:36:07;;;;;;;14.38;5.07;;;17.90;99.90;;;18.21;69.94;102383.78;5054104;28;20052;-78
2023/10/04 02:38:36;;;;;;;19.42;5.63;;;17.90;99.90;;;18.12;70.35;102365.13;5054732;28;20037;-79
2023/10/04 02:41:08;;;;;;;13.95;5.28;;;17.90;99.90;;;18.12;70.53;102385.69;5054375;28;20406;-79
2023/10/04 02:43:37;;;;;;;11.43;4.88;;;17.80;99.90;;;17.95;71.11;102383.16;5051416;28;20048;-79
2023/10/04 02:46:06;;;;;;;11.18;4.90;;;17.60;99.90;;;18.11;70.85;102382.09;5052799;28;20045;-79
2023/10/04 02:48:35;;;;;;;14.68;5.00;;;17.70;99.90;;;18.25;70.54;102380.16;5052305;28;20582;-79
2023/10/04 02:51:05;;;;;;;13.07;5.55;;;17.90;99.90;;;18.21;70.87;102388.25;5064723;28;20049;-79
2023/10/04 02:53:39;;;;;;;11.65;5.30;;;17.90;99.90;;;18.25;70.31;102379.28;5048418;28;20045;-78
2023/10/04 02:56:09;;;;;;;13.57;5.20;;;17.90;99.90;;;18.38;69.89;102378.22;5064344;28;20073;-80
2023/10/04 02:58:42;;;;;;;15.10;5.18;;;18.00;99.90;;;18.28;70.00;102381.91;5043571;28;20148;-79
2023/10/04 03:01:20;;;;;;;17.08;5.18;;;18.00;99.90;;;18.35;69.62;102384.47;5053000;28;20068;-79
2023/10/04 03:03:51;;;;;;;15.18;5.50;;;18.00;99.90;;;18.25;69.91;102384.63;5051732;28;20049;-79
2023/10/04 03:06:23;;;;;;;13.07;5.25;;;17.90;99.90;;;18.33;70.14;102394.31;5064349;28;20045;-78
2023/10/04 03:08:55;;;;;;;12.60;5.65;;;18.00;99.90;;;18.42;69.96;102379.94;5044603;28;20482;-79
2023/10/04 03:11:27;;;;;;;11.35;5.10;;;18.00;99.90;;;18.45;69.98;102380.81;5051760;28;20483;-80
2023/10/04 03:13:59;;;;;;;14.63;5.05;;;18.10;99.90;;;18.40;70.32;102379.97;5050598;28;20149;-78
2023/10/04 03:16:29;;;;;;;10.95;5.15;;;18.00;99.90;;;18.41;70.12;102381.72;5050365;28;20048;-78
2023/10/04 03:18:58;;;;;;;14.18;5.45;;;18.00;99.90;;;18.08;70.53;102349.97;5051768;28;20474;-79
2023/10/04 03:21:30;;;;;;;13.85;4.82;;;17.90;99.90;;;18.08;71.09;102370.53;5050260;28;20075;-78
2023/10/04 03:24:06;;;;;;;12.68;5.45;;;17.70;99.90;;;17.99;71.33;102374.19;5050967;28;20497;-79
2023/10/04 03:26:36;;;;;;;14.25;5.18;;;17.60;99.90;;;18.15;70.49;102361.53;5067295;28;20084;-78
2023/10/04 03:29:06;;;;;;;14.23;5.40;;;17.70;99.90;;;18.13;70.50;102353.50;5065790;28;20045;-78
2023/10/04 03:31:35;;;;;;;10.80;5.20;;;17.70;99.90;;;18.13;70.35;102363.34;5052327;28;20044;-79
2023/10/04 03:34:04;;;;;;;9.68;4.65;;;17.80;99.90;;;18.06;70.33;102367.00;5050908;28;20114;-78
2023/10/04 03:36:34;;;;;;;14.30;5.95;;;17.70;99.90;;;18.09;70.16;102362.47;5053872;28;20468;-78
2023/10/04 03:39:10;;;;;;;16.67;5.93;;;17.70;99.90;;;17.97;70.72;102373.31;5055982;28;20495;-79
2023/10/04 03:41:43;;;;;;;16.42;6.15;;;17.60;99.90;;;18.02;71.02;102371.50;5054936;28;20126;-79
2023/10/04 03:44:13;;;;;;;13.13;5.38;;;17.60;99.90;;;17.89;71.43;102367.16;5056197;28;20049;-80
2023/10/04 03:46:43;;;;;;;15.57;5.55;;;17.50;99.90;;;17.96;71.08;102358.19;5054686;28;20048;-78
2023/10/04 03:49:12;;;;;;;10.65;5.20;;;17.60;99.90;;;18.06;71.05;102356.28;5056235;28;20052;-79
2023/10/04 03:51:41;;;;;;;13.68;5.97;;;17.70;99.90;;;17.84;71.87;102361.88;5054375;28;20048;-79
2023/10/04 03:54:12;;;;;;;14.23;5.40;;;17.50;99.90;;;17.95;71.78;102359.97;5054824;28;20490;-80
2023/10/04 03:56:44;;;;;;;14.93;5.57;;;17.50;99.90;;;17.99;71.94;102363.47;5054533;28;20491;-79
2023/10/04 03:59:13;;;;;;;10.10;5.03;;;17.60;99.90;;;17.93;71.67;102364.44;5055509;28;20045;-78
2023/10/04 04:01:42;;;;;;;13.18;5.60;;;17.50;99.90;;;17.98;71.59;102343.84;5054468;28;20338;-78
2023/10/04 04:04:14;;;;;;;10.55;5.15;;;17.60;99.90;;;18.07;71.50;102345.53;5055636;28;20052;-79
2023/10/04 04:06:44;;;;;;;13.10;5.40;;;17.70;99.90;;;18.04;71.35;102341.09;5055877;28;20393;-79
2023/10/04 04:09:14;;;;;;;14.27;5.40;;;17.70;99.90;;;18.13;71.31;102333.88;5067809;28;20053;-79
2023/10/04 04:11:43;;;;;;;13.25;5.40;;;17.70;99.90;;;18.18;70.97;102338.25;5045727;28;20052;-78
2023/10/04 04:14:18;;;;;;;16.13;5.72;;;17.80;99.90;;;17.62;70.82;102229.16;5056046;28;20075;-76
2023/10/04 04:16:47;;;;;;;14.05;5.70;;;17.80;99.90;;;18.21;70.92;102330.19;5039310;28;20164;-76
2023/10/04 04:19:19;;;;;;;13.13;5.03;;;17.80;99.90;;;18.08;70.69;102312.47;5054041;28;20055;-79
2023/10/04 04:21:49;;;;;;;12.13;4.90;;;17.90;99.90;;;18.28;70.47;102345.28;5070984;28;20057;-77
2023/10/04 04:24:17;;;;;;;13.57;5.80;;;17.80;99.90;;;18.32;70.18;102351.47;5054516;28;20045;-79
2023/10/04 04:26:47;;;;;;;12.80;5.63;;;17.90;99.90;;;18.31;69.96;102355.94;5054930;28;20409;-79
2023/10/04 04:29:17;;;;;;;12.38;5.82;;;17.90;99.90;;;18.37;69.49;102360.38;5054927;28;20045;-79
2023/10/04 04:31:47;;;;;;;12.20;5.75;;;17.90;99.90;;;18.35;69.46;102355.00;5055900;28;20049;-79
2023/10/04 04:34:16;;;;;;;12.13;5.60;;;17.90;99.90;;;18.39;69.28;102366.59;5052144;28;20059;-78
2023/10/04 04:36:49;;;;;;;12.67;5.90;;;18.00;99.90;;;18.38;68.73;102365.69;5053395;28;20410;-79
2023/10/04 04:39:18;;;;;;;13.57;6.15;;;18.00;99.90;;;18.39;68.74;102372.81;5053348;28;20060;-80
2023/10/04 04:41:52;;;;;;;12.40;5.63;;;18.00;99.90;;;18.38;68.67;102362.13;5053579;28;20052;-80
2023/10/04 04:44:29;;;;;;;15.38;5.95;;;18.00;99.90;;;18.39;68.63;102369.28;5039465;28;20045;-79
2023/10/04 04:46:59;;;;;;;11.50;5.38;;;18.00;99.90;;;18.33;68.88;102370.22;5052652;28;20076;-79
2023/10/04 04:49:29;;;;;;;15.60;5.85;;;17.90;99.90;;;18.28;69.14;102373.84;5053217;28;20045;-79
2023/10/04 04:52:00;;;;;;;17.92;6.25;;;17.90;99.90;;;18.24;69.50;102373.00;5068800;28;20045;-79
2023/10/04 04:54:30;;;;;;;16.83;5.97;;;17.80;99.90;;;18.15;69.60;102373.13;5053396;28;20498;-78
2023/10/04 04:57:00;;;;;;;20.27;5.68;;;17.70;99.90;;;18.11;69.85;102384.78;5053108;28;20471;-79
2023/10/04 04:59:28;;;;;;;17.00;6.30;;;17.70;99.90;;;17.99;70.85;102382.22;5070052;28;20148;-79
2023/10/04 05:01:57;;;;;;;16.20;6.25;;;17.60;99.90;;;17.88;71.99;102379.69;5053347;28;20127;-79
2023/10/04 05:04:25;;;;;;;12.38;5.70;;;17.50;99.90;;;17.87;72.11;102385.03;5052888;28;20049;-79
2023/10/04 05:06:54;;;;;;;14.23;6.03;;;17.40;99.90;;;17.85;72.02;102392.19;5052819;28;20053;-79
2023/10/04 05:09:22;;;;;;;18.05;6.68;;;17.40;99.90;;;17.89;72.06;102396.59;5053651;28;20048;-77
2023/10/04 05:11:51;;;;;;;20.35;6.28;;;17.40;99.90;;;17.90;72.09;102387.69;5052680;28;20045;-79
2023/10/04 05:14:22;;;;;;;13.68;6.13;;;17.40;99.90;;;17.84;72.22;102371.69;5053946;28;20049;-78
2023/10/04 05:16:50;;;;;;;13.18;6.13;;;17.40;99.90;;;17.93;72.46;102399.25;5053587;28;20056;-79
2023/10/04 05:19:18;;;;;;;14.02;6.03;;;17.50;99.90;;;17.88;72.40;102392.19;5053901;28;20128;-75
2023/10/04 05:21:47;;;;;;;14.23;5.93;;;17.40;99.90;;;17.82;72.49;102390.44;5053556;28;20126;-78
2023/10/04 05:24:15;;;;;;;13.43;5.75;;;17.40;99.90;;;17.69;72.92;102393.25;5053557;28;20049;-78
2023/10/04 05:26:44;;;;;;;15.23;6.60;;;17.20;99.90;;;17.55;73.35;102388.03;5054218;28;20080;-76
2023/10/04 05:29:12;;;;;;;14.45;5.85;;;17.10;99.90;;;17.51;73.30;102393.41;5052381;28;20544;-78
2023/10/04 05:31:42;;;;;;;17.00;5.90;;;17.00;99.90;;;17.37;73.75;102400.63;5052573;28;20045;-78
2023/10/04 05:34:11;;;;;;;12.35;6.35;;;16.90;99.90;;;17.31;73.76;102401.56;5053817;28;20045;-78
2023/10/04 05:36:40;;;;;;;13.70;5.78;;;16.80;99.90;;;17.24;74.00;102406.97;5052999;28;20127;-78
2023/10/04 05:39:11;;;;;;;14.65;6.32;;;16.70;99.90;;;17.21;74.28;102405.19;5051836;28;20049;-79
2023/10/04 05:41:40;;;;;;;16.15;5.93;;;16.70;99.90;;;17.08;74.24;102409.75;5053238;28;20045;-78
2023/10/04 05:44:09;;;;;;;18.52;6.35;;;16.60;99.90;;;17.12;74.61;102403.50;5052205;28;20048;-79
2023/10/04 05:46:44;;;;;;;16.80;6.22;;;16.60;99.90;;;16.39;74.76;102270.28;5053543;28;20047;-79
2023/10/04 05:49:13;;;;;;;14.73;6.75;;;16.60;99.90;;;17.23;74.89;102407.88;5051128;28;21020;-80
2023/10/04 05:51:42;;;;;;;14.53;6.50;;;16.70;99.90;;;17.28;75.09;102408.72;5053010;28;20045;-79
2023/10/04 05:54:11;;;;;;;17.27;6.88;;;16.80;99.90;;;17.34;75.64;102406.00;5053327;28;20744;-79
2023/10/04 05:56:40;;;;;;;15.82;6.82;;;16.80;99.90;;;17.41;75.95;102399.69;5051939;28;20057;-78
2023/10/04 05:59:12;;;;;;;13.13;6.75;;;16.90;99.90;;;17.48;76.14;102414.81;5053399;28;20088;-78
2023/10/04 06:01:41;;;;;;;18.55;7.10;;;17.00;99.90;;;17.51;76.63;102418.38;5053316;28;20044;-79
2023/10/04 06:04:10;;;;;;;14.55;7.07;;;17.00;99.90;;;17.59;76.58;102412.97;5053023;28;20049;-78
2023/10/04 06:06:45;;;;;;;19.42;6.90;;;17.10;99.90;;;17.56;76.63;102399.59;5052846;28;20467;-78
2023/10/04 06:09:26;;;;;;;12.07;6.45;;;17.20;99.90;;;17.52;76.79;102412.13;5053335;28;20045;-79
2023/10/04 06:11:55;;;;;;;14.23;5.88;;;17.10;99.90;;;17.55;77.09;102416.56;5052747;28;20374;-79
2023/10/04 06:14:26;;;;;;;12.43;6.40;;;17.10;99.90;;;17.58;77.30;102419.19;5052959;28;20049;-78
2023/10/04 06:16:55;;;;;;;14.75;6.95;;;17.10;99.90;;;17.66;77.18;102422.72;5051762;28;20055;-78
2023/10/04 06:19:25;;;;;;;16.83;7.20;;;17.20;99.90;;;17.75;77.17;102417.28;5052929;28;20047;-78
2023/10/04 06:22:00;;;;;;;18.13;6.90;;;17.30;99.90;;;17.86;76.99;102424.31;5053007;28;20106;-78
2023/10/04 06:24:28;;;;;;;14.63;6.30;;;17.40;99.90;;;17.91;76.70;102421.59;5052627;28;20102;-79
2023/10/04 06:26:57;;;;;;;15.27;6.65;;;17.50;99.90;;;18.02;76.29;102435.78;5052580;28;20458;-78
2023/10/04 06:29:26;;;;;;;18.65;7.40;;;17.60;99.90;;;18.10;76.27;102431.19;5052863;28;20049;-79
2023/10/04 06:31:54;;;;;;;17.77;7.35;;;17.60;99.90;;;18.20;76.09;102426.63;5052570;28;20552;-79
2023/10/04 06:34:23;;;;;;;20.42;8.38;;;17.70;99.90;;;18.28;75.94;102432.81;5052600;28;20394;-79
2023/10/04 06:36:51;;;;;;;17.33;7.93;;;17.80;99.90;;;18.30;75.85;102425.63;5051330;28;20053;-77
2023/10/04 06:39:22;;;;;;;20.08;7.55;;;17.90;99.90;;;18.35;75.60;102422.00;5052521;28;20045;-77
2023/10/04 06:41:52;;;;;;;14.38;6.97;;;17.90;99.90;;;18.29;74.82;102430.09;5052593;28;20053;-76
2023/10/04 06:44:22;;;;;;;21.83;8.13;;;17.90;99.90;;;18.20;75.43;102432.88;5052474;28;20052;-75
2023/10/04 06:46:52;;;;;;;15.75;7.03;;;17.80;99.90;;;18.20;75.99;102432.88;5052382;28;20041;-78
2023/10/04 06:49:20;;;;;;;15.18;6.70;;;17.70;99.90;;;18.27;76.44;102425.69;5051843;28;20525;-78
2023/10/04 06:51:49;;;;;;;18.00;7.10;;;17.90;99.90;;;18.43;76.47;102432.66;5051752;28;20143;-78
2023/10/04 06:54:17;;;;;;;17.23;7.18;;;17.90;99.90;;;18.50;76.59;102440.63;5051693;28;20074;-77
2023/10/04 06:56:49;;;;;;;17.08;7.28;;;18.00;99.90;;;18.63;76.69;102444.03;5051523;28;20540;-78
2023/10/04 06:59:17;;;;;;;24.13;8.63;;;18.10;99.90;;;18.72;76.47;102444.81;5052371;28;20056;-78
2023/10/04 07:01:46;;;;;;;20.05;7.90;;;18.30;99.90;;;18.87;76.52;102449.97;5051611;28;20669;-79
2023/10/04 07:04:15;;;;;;;17.35;7.05;;;18.40;99.90;;;18.98;76.34;102454.31;5035701;28;20390;-79
2023/10/04 07:06:43;;;;;;;21.25;6.93;;;18.50;99.90;;;19.07;76.18;102454.16;5063833;28;20060;-78
2023/10/04 07:09:14;;;;;;;17.63;7.78;;;18.60;99.90;;;19.14;76.10;102455.88;5044582;28;20055;-78
2023/10/04 07:11:43;;;;;;;14.43;6.88;;;18.70;99.90;;;19.18;76.24;102452.25;5051387;28;20052;-77
2023/10/04 07:14:13;;;;;;;15.73;6.93;;;18.70;99.90;;;19.16;76.37;102436.16;5051731;28;20434;-78
2023/10/04 07:16:41;;;;;;;16.70;7.22;;;18.80;99.90;;;19.24;76.87;102449.47;5052154;28;20120;-78
2023/10/04 07:19:11;;;;;;;17.63;7.30;;;18.80;99.90;;;19.24;77.33;102458.38;5051927;28;20080;-77
2023/10/04 07:21:39;;;;;;;16.20;7.32;;;18.80;99.90;;;19.30;77.61;102452.06;5052270;28;20487;-78
2023/10/04 07:24:08;;;;;;;19.30;7.38;;;18.90;99.90;;;19.39;77.82;102458.22;5051891;28;20052;-77
2023/10/04 07:26:37;;;;;;;20.15;7.03;;;18.90;99.90;;;19.42;77.22;102458.16;5051626;28;20064;-72
2023/10/04 07:29:06;;;;;;;18.35;7.53;;;19.00;99.90;;;19.47;77.52;102463.47;5051827;28;20053;-79
2023/10/04 07:31:37;;;;;;;18.08;6.53;;;19.00;99.90;;;19.48;77.39;102460.75;5051903;28;20045;-85
2023/10/04 07:34:05;;;;;;;20.42;6.78;;;19.00;99.90;;;19.51;77.14;102460.69;5052278;28;20457;-81
2023/10/04 07:36:36;;;;;;;15.05;6.35;;;19.10;99.90;;;19.52;77.27;102458.91;5052057;28;20040;-79
2023/10/04 07:39:04;;;;;;;17.42;7.10;;;19.10;99.90;;;19.47;77.35;102467.00;5050986;28;20112;-82
2023/10/04 07:41:33;;;;;;;18.17;6.97;;;19.10;99.90;;;19.46;77.69;102467.03;5052322;28;20379;-82
2023/10/04 07:44:01;;;;;;;19.65;7.18;;;19.00;99.90;;;19.48;78.09;102463.44;5052341;28;20093;-79
2023/10/04 07:46:31;;;;;;;15.10;7.05;;;19.00;99.90;;;19.42;78.25;102473.38;5052443;28;20033;-80
2023/10/04 07:49:02;;;;;;;15.87;6.73;;;19.00;99.90;;;19.35;78.16;102469.91;5052010;28;20045;-79
2023/10/04 07:51:31;;;;;;;23.15;7.70;;;19.00;99.90;;;19.27;78.48;102476.25;5051662;28;20482;-77
2023/10/04 07:53:59;;;;;;;18.77;7.57;;;18.80;99.90;;;19.16;79.08;102473.75;5051982;28;20067;-76
2023/10/04 07:56:28;;;;;;;16.05;6.78;;;18.70;99.90;;;19.17;79.53;102483.53;5052013;28;20056;-77
2023/10/04 07:58:57;;;;;;;16.83;6.68;;;18.70;99.90;;;19.19;80.24;102483.50;5051707;28;20478;-80
2023/10/04 08:01:25;;;;;;;15.27;6.97;;;18.70;99.90;;;19.21;80.44;102484.38;5034691;28;20418;-78
2023/10/04 08:03:53;;;;;;;18.85;7.07;;;18.80;99.90;;;19.27;80.47;102486.97;5051373;28;20064;-78
2023/10/04 08:06:24;;;;;;;16.55;6.68;;;18.80;99.90;;;19.24;80.49;102489.72;5050888;28;20041;-78
2023/10/04 08:08:53;;;;;;;17.38;7.75;;;18.80;99.90;;;19.15;80.58;102482.69;5050907;28;20056;-83
2023/10/04 08:11:21;;;;;;;16.98;6.82;;;18.80;99.90;;;19.17;80.92;102514.84;5051039;28;20096;-81
2023/10/04 08:13:50;;;;;;;16.92;7.07;;;18.70;99.90;;;19.13;80.81;102495.22;5051199;28;20076;-75
2023/10/04 08:16:19;;;;;;;16.95;7.22;;;18.70;99.90;;;19.28;81.30;102503.06;5050206;28;20056;-76
2023/10/04 08:18:48;;;;;;;17.67;6.63;;;18.80;99.90;;;19.34;80.69;102496.75;5051789;28;20055;-83
2023/10/04 08:21:17;;;;;;;19.38;6.78;;;18.90;99.90;;;19.31;80.32;102499.44;5051589;28;20045;-83
2023/10/04 08:23:47;;;;;;;22.33;7.45;;;18.80;99.90;;;19.36;80.53;102492.25;5054177;28;20053;-85
2023/10/04 08:26:15;;;;;;;19.63;7.57;;;18.90;99.90;;;19.27;80.23;102498.59;5055160;28;20083;-85
2023/10/04 08:28:44;;;;;;;17.50;6.03;;;18.80;99.90;;;19.10;80.20;102497.06;5055299;28;20311;-75
2023/10/04 08:31:13;;;;;;;18.73;6.85;;;18.70;99.90;;;19.05;80.39;102493.56;5055295;28;20049;-76
2023/10/04 08:33:43;;;;;;;15.38;6.75;;;18.60;99.90;;;18.99;80.76;102466.81;5055338;28;20372;-76
2023/10/04 08:36:15;;;;;;;18.92;6.90;;;18.60;99.90;;;19.09;80.79;102496.16;5055681;28;20136;-73
2023/10/04 08:38:46;;;;;;;14.18;6.80;;;18.60;99.90;;;19.21;80.99;102500.47;5055402;28;20120;-76
2023/10/04 08:41:16;;;;;;;20.80;8.18;;;18.70;99.90;;;19.23;80.89;102493.28;5055112;28;20055;-77
2023/10/04 08:43:45;;;;;;;16.77;6.80;;;18.80;99.90;;;19.15;80.61;102498.78;5054628;28;20124;-73
2023/10/04 08:46:16;;;;;;;18.50;7.20;;;18.80;99.90;;;19.14;81.10;102493.44;5054917;28;20049;-74
2023/10/04 08:48:53;;;;;;;16.88;7.10;;;18.70;99.90;;;19.21;81.54;102496.00;5038991;28;20041;-74
2023/10/04 08:51:34;;;;;;;18.40;6.60;;;18.80;99.90;;;19.25;81.99;102496.84;5054572;28;20049;-75
2023/10/04 08:54:12;;;;;;;19.63;6.65;;;18.80;99.90;;;19.34;81.61;102488.69;5054649;28;20060;-74
2023/10/04 08:56:49;;;;;;;16.17;6.90;;;18.90;99.90;;;19.52;81.29;102496.47;5039099;28;20048;-74
2023/10/04 08:59:18;;;;;;;20.55;7.32;;;19.00;99.90;;;19.65;81.08;102495.38;5054426;28;20040;-74
2023/10/04 09:01:50;;;;;;;19.13;6.75;;;19.20;99.90;;;19.83;80.91;102499.56;5054245;28;20483;-75
2023/10/04 09:04:21;;;;;;;21.73;7.32;;;19.40;99.90;;;19.84;80.53;102494.16;5054331;28;20060;-75
2023/10/04 09:06:49;;;;;;;14.27;6.38;;;19.40;99.90;;;19.89;80.30;102489.63;5053913;28;20051;-74
2023/10/04 09:09:20;;;;;;;18.08;7.07;;;19.50;99.90;;;19.94;80.43;102495.78;5053576;28;20106;-74
2023/10/04 09:11:49;;;;;;;21.35;7.50;;;19.50;99.90;;;20.01;80.17;102480.47;5054013;28;20498;-80
2023/10/04 09:14:17;;;;;;;19.33;6.60;;;19.60;99.90;;;20.04;79.02;102489.34;5053726;28;20066;-78
2023/10/04 09:17:06;;;;;;;15.40;6.70;;;19.60;99.90;;;20.03;78.72;102487.59;5053705;28;20405;-76
2023/10/04 09:19:35;;;;;;;15.23;6.20;;;19.60;99.90;;;19.96;78.93;102493.97;5054211;28;20083;-78
2023/10/04 09:22:09;;;;;;;19.63;6.50;;;19.60;99.90;;;19.99;78.96;102479.59;5054558;28;20147;-79
2023/10/04 09:24:54;;;;;;;26.02;7.05;;;19.60;99.90;;;19.96;79.04;102493.06;5054338;28;20130;-79
2023/10/04 09:27:23;;;;;;;16.50;6.45;;;19.60;99.90;;;19.91;79.27;102490.47;5053846;28;20041;-77
2023/10/04 09:29:53;;;;;;;19.45;6.97;;;19.50;99.90;;;19.83;79.36;102475.38;5052633;28;20059;-77
2023/10/04 09:32:36;;;;;;;21.00;7.32;;;19.50;99.90;;;19.84;79.17;102499.53;5053394;28;20049;-77
2023/10/04 09:35:05;;;;;;;13.48;6.40;;;19.50;99.90;;;19.77;79.68;102489.81;5052326;28;20045;-79
2023/10/04 09:37:34;;;;;;;20.10;6.67;;;19.30;99.90;;;19.79;79.89;102488.00;5054139;28;20132;-78
2023/10/04 09:40:12;;;;;;;19.42;6.65;;;19.30;99.90;;;19.72;80.64;102497.94;5053650;28;20457;-79
2023/10/04 09:42:49;;;;;;;16.77;6.47;;;19.30;99.90;;;19.66;80.73;102495.38;5053558;28;20041;-78
2023/10/04 09:45:20;;;;;;;19.08;6.57;;;19.30;99.90;;;19.74;80.46;102495.25;5053839;28;20099;-75
2023/10/04 09:47:51;;;;;;;16.10;6.25;;;19.30;99.90;;;19.69;79.34;102494.41;5053126;28;20055;-79
2023/10/04 09:50:25;;;;;;;12.13;5.45;;;19.20;99.90;;;19.58;77.96;102496.38;5053468;28;20045;-79
2023/10/04 09:52:55;;;;;;;18.35;6.60;;;19.30;99.90;;;19.49;77.13;102491.16;5053429;28;20049;-79
2023/10/04 09:55:27;;;;;;;16.65;6.57;;;19.20;99.90;;;19.48;75.96;102498.34;5053199;28;20048;-77
2023/10/04 09:57:56;;;;;;;13.43;5.97;;;19.10;99.90;;;19.72;75.19;102492.56;5053421;28;20057;-78
2023/10/04 10:00:29;;;;;;;18.80;7.20;;;19.30;99.90;;;19.70;72.56;102483.63;5053228;28;20053;-76
2023/10/04 10:03:02;;;;;;;15.18;5.72;;;19.30;99.90;;;19.75;72.54;102488.94;5053096;28;20344;-77
2023/10/04 10:05:32;;;;;;;17.88;6.88;;;19.30;99.90;;;19.85;72.73;102474.47;5053082;28;20564;-77
2023/10/04 10:08:04;;;;;;;;;;;19.50;99.90;;;19.89;71.36;102491.41;5053310;28;20040;-77
2023/10/04 10:10:40;;;;;;;19.60;6.50;;;19.50;99.90;;;19.96;70.24;102488.59;5052670;28;19924;-79
2023/10/04 10:13:10;;;;;;;17.70;7.03;;;19.60;99.90;;;20.13;69.95;102499.91;5052557;28;20049;-78
2023/10/04 10:15:38;;;;;;;14.05;6.00;;;19.70;99.90;;;20.13;67.17;102491.00;5052416;28;20053;-78
2023/10/04 10:18:10;;;;;;;12.77;6.13;;;19.80;99.90;;;20.27;66.42;102491.66;5052374;28;20053;-77